sensor_id;sensor_type;location;lat;lon;timestamp;pressure;altitude;pressure_sealevel;temperature;humidity
30614;BME280;17381;51.690;5.270;2022-07-23T00:01:50;101899.06;;;18.70;60.71
30614;BME280;17381;51.690;5.270;2022-07-23T00:04:50;101890.41;;;18.65;60.94
30614;BME280;17381;51.690;5.270;2022-07-23T00:07:51;101877.38;;;18.59;61.08
30614;BME280;17381;51.690;5.270;2022-07-23T00:11:04;101899.00;;;18.71;61.29
30614;BME280;17381;51.690;5.270;2022-07-23T00:14:00;101892.22;;;18.64;60.79
30614;BME280;17381;51.690;5.270;2022-07-23T00:17:02;101814.53;;;18.12;61.08
30614;BME280;17381;51.690;5.270;2022-07-23T00:20:06;101867.47;;;18.40;61.31
30614;BME280;17381;51.690;5.270;2022-07-23T00:23:03;101844.09;;;18.26;61.15
30614;BME280;17381;51.690;5.270;2022-07-23T00:25:58;101887.34;;;18.53;61.11
30614;BME280;17381;51.690;5.270;2022-07-23T00:28:50;101896.94;;;18.58;61.22
30614;BME280;17381;51.690;5.270;2022-07-23T00:31:43;101880.47;;;18.48;61.04
30614;BME280;17381;51.690;5.270;2022-07-23T00:34:39;101882.34;;;18.46;61.19
30614;BME280;17381;51.690;5.270;2022-07-23T00:37:56;101864.13;;;18.35;61.11
30614;BME280;17381;51.690;5.270;2022-07-23T00:40:49;101875.47;;;18.40;61.22
30614;BME280;17381;51.690;5.270;2022-07-23T00:43:47;101871.13;;;18.38;61.17
30614;BME280;17381;51.690;5.270;2022-07-23T00:46:56;101874.78;;;18.35;61.20
30614;BME280;17381;51.690;5.270;2022-07-23T00:49:52;101883.72;;;18.34;61.24
30614;BME280;17381;51.690;5.270;2022-07-23T00:52:54;101885.56;;;18.32;61.30
30614;BME280;17381;51.690;5.270;2022-07-23T00:55:49;101846.69;;;18.07;61.26
30614;BME280;17381;51.690;5.270;2022-07-23T00:58:42;101873.44;;;18.25;61.54
30614;BME280;17381;51.690;5.270;2022-07-23T01:01:35;101888.50;;;18.26;61.90
30614;BME280;17381;51.690;5.270;2022-07-23T01:04:29;101881.50;;;18.23;61.84
30614;BME280;17381;51.690;5.270;2022-07-23T01:07:21;101874.56;;;18.19;62.06
30614;BME280;17381;51.690;5.270;2022-07-23T01:10:24;101849.56;;;18.01;61.88
30614;BME280;17381;51.690;5.270;2022-07-23T01:13:30;101879.16;;;18.16;61.87
30614;BME280;17381;51.690;5.270;2022-07-23T01:16:27;101884.47;;;18.16;61.99
30614;BME280;17381;51.690;5.270;2022-07-23T01:19:24;101874.00;;;18.11;62.03
30614;BME280;17381;51.690;5.270;2022-07-23T01:22:38;101863.56;;;18.06;61.85
30614;BME280;17381;51.690;5.270;2022-07-23T01:25:27;101866.28;;;18.05;61.97
30614;BME280;17381;51.690;5.270;2022-07-23T01:28:08;101866.44;;;18.02;62.08
30614;BME280;17381;51.690;5.270;2022-07-23T01:31:09;101869.94;;;18.02;62.22
30614;BME280;17381;51.690;5.270;2022-07-23T01:34:08;101861.09;;;18.02;62.51
30614;BME280;17381;51.690;5.270;2022-07-23T01:37:04;101859.44;;;17.99;62.51
30614;BME280;17381;51.690;5.270;2022-07-23T01:40:20;101855.28;;;17.92;62.76
30614;BME280;17381;51.690;5.270;2022-07-23T01:43:12;101855.28;;;17.92;62.84
30614;BME280;17381;51.690;5.270;2022-07-23T01:46:15;101851.69;;;17.93;62.96
30614;BME280;17381;51.690;5.270;2022-07-23T01:49:11;101858.75;;;17.94;63.41
30614;BME280;17381;51.690;5.270;2022-07-23T01:52:27;101862.50;;;17.88;63.41
30614;BME280;17381;51.690;5.270;2022-07-23T01:55:38;101850.31;;;17.83;63.46
30614;BME280;17381;51.690;5.270;2022-07-23T01:58:46;101773.22;;;17.37;63.35
30614;BME280;17381;51.690;5.270;2022-07-23T02:01:39;101850.44;;;17.80;63.74
30614;BME280;17381;51.690;5.270;2022-07-23T02:04:35;101852.38;;;17.75;63.71
30614;BME280;17381;51.690;5.270;2022-07-23T02:07:33;101851.00;;;17.64;63.46
30614;BME280;17381;51.690;5.270;2022-07-23T02:10:41;101838.38;;;17.48;63.79
30614;BME280;17381;51.690;5.270;2022-07-23T02:13:37;101839.25;;;17.48;64.07
30614;BME280;17381;51.690;5.270;2022-07-23T02:16:23;101852.34;;;17.53;64.14
30614;BME280;17381;51.690;5.270;2022-07-23T02:19:20;101802.28;;;17.18;64.33
30614;BME280;17381;51.690;5.270;2022-07-23T02:22:22;101865.03;;;17.46;64.07
30614;BME280;17381;51.690;5.270;2022-07-23T02:25:15;101870.59;;;17.40;64.17
30614;BME280;17381;51.690;5.270;2022-07-23T02:28:18;101869.88;;;17.35;64.41
30614;BME280;17381;51.690;5.270;2022-07-23T02:31:08;101834.53;;;17.09;64.52
30614;BME280;17381;51.690;5.270;2022-07-23T02:34:02;101783.63;;;16.71;64.39
30614;BME280;17381;51.690;5.270;2022-07-23T02:36:52;101854.59;;;17.16;64.76
30614;BME280;17381;51.690;5.270;2022-07-23T02:39:56;101857.34;;;17.15;64.75
30614;BME280;17381;51.690;5.270;2022-07-23T02:42:52;101803.78;;;16.78;64.79
30614;BME280;17381;51.690;5.270;2022-07-23T02:45:50;101871.59;;;17.12;64.82
30614;BME280;17381;51.690;5.270;2022-07-23T02:52:01;101781.66;;;16.53;65.36
30614;BME280;17381;51.690;5.270;2022-07-23T02:54:59;101860.59;;;16.98;65.21
30614;BME280;17381;51.690;5.270;2022-07-23T02:57:52;101851.06;;;16.92;65.53
30614;BME280;17381;51.690;5.270;2022-07-23T03:00:48;101837.44;;;16.76;65.21
30614;BME280;17381;51.690;5.270;2022-07-23T03:04:06;101870.50;;;16.93;65.26
30614;BME280;17381;51.690;5.270;2022-07-23T03:06:57;101870.72;;;16.88;65.43
30614;BME280;17381;51.690;5.270;2022-07-23T03:09:46;101874.25;;;16.87;65.71
30614;BME280;17381;51.690;5.270;2022-07-23T03:12:40;101881.63;;;16.79;65.48
30614;BME280;17381;51.690;5.270;2022-07-23T03:15:32;101883.56;;;16.74;65.24
30614;BME280;17381;51.690;5.270;2022-07-23T03:18:24;101875.84;;;16.66;65.49
30614;BME280;17381;51.690;5.270;2022-07-23T03:21:31;101875.16;;;16.61;65.54
30614;BME280;17381;51.690;5.270;2022-07-23T03:24:27;101858.72;;;16.50;65.74
30614;BME280;17381;51.690;5.270;2022-07-23T03:27:29;101873.50;;;16.57;66.22
30614;BME280;17381;51.690;5.270;2022-07-23T03:30:23;101879.53;;;16.62;66.29
30614;BME280;17381;51.690;5.270;2022-07-23T03:33:15;101879.47;;;16.64;66.00
30614;BME280;17381;51.690;5.270;2022-07-23T03:39:14;101852.06;;;16.36;66.12
30614;BME280;17381;51.690;5.270;2022-07-23T03:42:10;101876.50;;;16.48;65.88
30614;BME280;17381;51.690;5.270;2022-07-23T03:45:04;101883.84;;;16.40;66.28
30614;BME280;17381;51.690;5.270;2022-07-23T03:48:01;101880.56;;;16.31;66.14
30614;BME280;17381;51.690;5.270;2022-07-23T03:50:55;101876.25;;;16.29;66.55
30614;BME280;17381;51.690;5.270;2022-07-23T03:54:00;101882.25;;;16.34;66.59
30614;BME280;17381;51.690;5.270;2022-07-23T03:57:00;101886.66;;;16.35;66.86
30614;BME280;17381;51.690;5.270;2022-07-23T04:00:04;101878.06;;;16.27;66.62
30614;BME280;17381;51.690;5.270;2022-07-23T04:03:03;101886.03;;;16.27;66.60
30614;BME280;17381;51.690;5.270;2022-07-23T04:05:58;101891.44;;;16.24;66.73
30614;BME280;17381;51.690;5.270;2022-07-23T04:09:00;101883.75;;;16.16;66.68
30614;BME280;17381;51.690;5.270;2022-07-23T04:11:53;101893.41;;;16.17;66.49
30614;BME280;17381;51.690;5.270;2022-07-23T04:14:52;101875.31;;;16.03;66.83
30614;BME280;17381;51.690;5.270;2022-07-23T04:17:47;101879.81;;;16.00;67.03
30614;BME280;17381;51.690;5.270;2022-07-23T04:20:54;101890.31;;;16.03;66.93
30614;BME280;17381;51.690;5.270;2022-07-23T04:23:54;101899.00;;;16.08;67.25
30614;BME280;17381;51.690;5.270;2022-07-23T04:26:47;101894.72;;;16.04;67.37
30614;BME280;17381;51.690;5.270;2022-07-23T04:29:28;101895.59;;;16.04;67.18
30614;BME280;17381;51.690;5.270;2022-07-23T04:31:57;101894.63;;;16.07;67.25
30614;BME280;17381;51.690;5.270;2022-07-23T04:34:40;101902.59;;;16.07;67.54
30614;BME280;17381;51.690;5.270;2022-07-23T04:37:21;101872.16;;;15.90;67.25
30614;BME280;17381;51.690;5.270;2022-07-23T04:40:06;101906.97;;;16.08;67.48
30614;BME280;17381;51.690;5.270;2022-07-23T04:43:00;101913.19;;;16.07;67.52
30614;BME280;17381;51.690;5.270;2022-07-23T04:46:05;101920.31;;;16.05;67.51
30614;BME280;17381;51.690;5.270;2022-07-23T04:48:59;101928.38;;;16.02;67.35
30614;BME280;17381;51.690;5.270;2022-07-23T04:55:02;101919.56;;;16.01;68.58
30614;BME280;17381;51.690;5.270;2022-07-23T04:57:54;101895.22;;;15.88;68.39
30614;BME280;17381;51.690;5.270;2022-07-23T05:01:20;101929.78;;;16.13;68.62
30614;BME280;17381;51.690;5.270;2022-07-23T05:04:30;101933.25;;;16.16;68.85
30614;BME280;17381;51.690;5.270;2022-07-23T05:07:23;101929.63;;;16.18;68.97
30614;BME280;17381;51.690;5.270;2022-07-23T05:10:11;101895.59;;;16.04;69.31
30614;BME280;17381;51.690;5.270;2022-07-23T05:13:10;101919.75;;;16.23;69.44
30614;BME280;17381;51.690;5.270;2022-07-23T05:16:05;101936.34;;;16.30;69.47
30614;BME280;17381;51.690;5.270;2022-07-23T05:19:07;101935.28;;;16.35;69.58
30614;BME280;17381;51.690;5.270;2022-07-23T05:22:18;101939.59;;;16.38;69.40
30614;BME280;17381;51.690;5.270;2022-07-23T05:25:27;101937.94;;;16.35;69.20
30614;BME280;17381;51.690;5.270;2022-07-23T05:28:31;101944.69;;;16.44;69.65
30614;BME280;17381;51.690;5.270;2022-07-23T05:35:11;101937.53;;;16.48;70.15
30614;BME280;17381;51.690;5.270;2022-07-23T05:38:34;101952.13;;;16.61;70.32
30614;BME280;17381;51.690;5.270;2022-07-23T05:41:30;101953.66;;;16.68;70.46
30614;BME280;17381;51.690;5.270;2022-07-23T05:44:22;101946.41;;;16.73;70.14
30614;BME280;17381;51.690;5.270;2022-07-23T05:47:16;101911.50;;;16.59;70.12
30614;BME280;17381;51.690;5.270;2022-07-23T05:50:18;101945.22;;;16.84;69.87
30614;BME280;17381;51.690;5.270;2022-07-23T05:53:35;101912.09;;;16.67;70.00
30614;BME280;17381;51.690;5.270;2022-07-23T05:56:41;101910.97;;;16.74;70.01
30614;BME280;17381;51.690;5.270;2022-07-23T05:59:35;101951.72;;;17.00;69.69
30614;BME280;17381;51.690;5.270;2022-07-23T06:02:19;101955.09;;;17.05;69.48
30614;BME280;17381;51.690;5.270;2022-07-23T06:05:28;101963.72;;;17.12;69.43
30614;BME280;17381;51.690;5.270;2022-07-23T06:08:14;101916.72;;;16.89;69.25
30614;BME280;17381;51.690;5.270;2022-07-23T06:10:55;101964.25;;;17.21;69.00
30614;BME280;17381;51.690;5.270;2022-07-23T06:13:46;101966.75;;;17.26;68.53
30614;BME280;17381;51.690;5.270;2022-07-23T06:16:29;101967.53;;;17.30;68.55
30614;BME280;17381;51.690;5.270;2022-07-23T06:19:23;101969.94;;;17.36;68.67
30614;BME280;17381;51.690;5.270;2022-07-23T06:22:20;101975.16;;;17.39;68.10
30614;BME280;17381;51.690;5.270;2022-07-23T06:25:16;101968.94;;;17.40;67.87
30614;BME280;17381;51.690;5.270;2022-07-23T06:28:15;101954.81;;;17.38;67.79
30614;BME280;17381;51.690;5.270;2022-07-23T06:31:07;101958.06;;;17.46;67.35
30614;BME280;17381;51.690;5.270;2022-07-23T06:34:07;101953.56;;;17.48;67.06
30614;BME280;17381;51.690;5.270;2022-07-23T06:37:02;101937.81;;;17.42;67.08
30614;BME280;17381;51.690;5.270;2022-07-23T06:39:51;101973.34;;;17.64;66.93
30614;BME280;17381;51.690;5.270;2022-07-23T06:42:48;101962.56;;;17.67;66.56
30614;BME280;17381;51.690;5.270;2022-07-23T06:45:32;101960.72;;;17.70;66.46
30614;BME280;17381;51.690;5.270;2022-07-23T06:48:19;101954.19;;;17.80;66.31
30614;BME280;17381;51.690;5.270;2022-07-23T06:51:12;101959.31;;;17.84;66.28
30614;BME280;17381;51.690;5.270;2022-07-23T06:54:07;101955.72;;;17.85;66.06
30614;BME280;17381;51.690;5.270;2022-07-23T06:57:20;101961.69;;;17.92;66.04
30614;BME280;17381;51.690;5.270;2022-07-23T07:00:17;101965.84;;;17.99;65.44
30614;BME280;17381;51.690;5.270;2022-07-23T07:03:16;101972.59;;;18.08;65.54
30614;BME280;17381;51.690;5.270;2022-07-23T07:06:02;101973.28;;;18.13;64.92
30614;BME280;17381;51.690;5.270;2022-07-23T07:08:52;101980.16;;;18.19;65.10
30614;BME280;17381;51.690;5.270;2022-07-23T07:11:45;101950.16;;;18.15;64.86
30614;BME280;17381;51.690;5.270;2022-07-23T07:14:41;101963.94;;;18.25;64.70
30614;BME280;17381;51.690;5.270;2022-07-23T07:17:38;101953.97;;;18.30;64.49
30614;BME280;17381;51.690;5.270;2022-07-23T07:20:31;101959.78;;;18.40;63.97
30614;BME280;17381;51.690;5.270;2022-07-23T07:23:43;101962.22;;;18.46;63.91
30614;BME280;17381;51.690;5.270;2022-07-23T07:26:24;101955.91;;;18.48;63.53
30614;BME280;17381;51.690;5.270;2022-07-23T07:29:20;101960.25;;;18.51;63.15
30614;BME280;17381;51.690;5.270;2022-07-23T07:32:13;101988.28;;;18.60;63.35
30614;BME280;17381;51.690;5.270;2022-07-23T07:34:48;101987.09;;;18.67;63.27
30614;BME280;17381;51.690;5.270;2022-07-23T07:37:38;101987.59;;;18.77;63.28
30614;BME280;17381;51.690;5.270;2022-07-23T07:41:07;101987.28;;;18.84;63.70
30614;BME280;17381;51.690;5.270;2022-07-23T07:44:05;101963.31;;;18.84;63.49
30614;BME280;17381;51.690;5.270;2022-07-23T07:47:06;101976.88;;;19.00;62.64
30614;BME280;17381;51.690;5.270;2022-07-23T07:50:25;101975.91;;;19.01;61.76
30614;BME280;17381;51.690;5.270;2022-07-23T07:53:15;101976.59;;;19.06;61.65
30614;BME280;17381;51.690;5.270;2022-07-23T07:56:23;101964.88;;;19.10;61.34
30614;BME280;17381;51.690;5.270;2022-07-23T07:59:08;101972.41;;;19.21;61.54
30614;BME280;17381;51.690;5.270;2022-07-23T08:01:46;101929.91;;;18.98;61.32
30614;BME280;17381;51.690;5.270;2022-07-23T08:04:39;101965.47;;;19.17;61.31
30614;BME280;17381;51.690;5.270;2022-07-23T08:07:29;102010.38;;;19.47;61.31
30614;BME280;17381;51.690;5.270;2022-07-23T08:10:25;102004.63;;;19.56;61.16
30614;BME280;17381;51.690;5.270;2022-07-23T08:13:21;102000.75;;;19.63;61.05
30614;BME280;17381;51.690;5.270;2022-07-23T08:16:17;101976.94;;;19.58;60.42
30614;BME280;17381;51.690;5.270;2022-07-23T08:19:26;102002.47;;;19.85;60.68
30614;BME280;17381;51.690;5.270;2022-07-23T08:22:19;102004.06;;;19.89;60.07
30614;BME280;17381;51.690;5.270;2022-07-23T08:25:12;102008.19;;;19.96;59.77
30614;BME280;17381;51.690;5.270;2022-07-23T08:28:05;102000.69;;;20.04;60.01
30614;BME280;17381;51.690;5.270;2022-07-23T08:30:58;102003.00;;;20.12;59.45
30614;BME280;17381;51.690;5.270;2022-07-23T08:33:48;102008.88;;;20.18;59.47
30614;BME280;17381;51.690;5.270;2022-07-23T08:36:37;102008.47;;;20.27;59.79
30614;BME280;17381;51.690;5.270;2022-07-23T08:39:21;102014.44;;;20.33;59.56
30614;BME280;17381;51.690;5.270;2022-07-23T08:42:15;102011.47;;;20.39;59.34
30614;BME280;17381;51.690;5.270;2022-07-23T08:45:10;102007.41;;;20.49;58.91
30614;BME280;17381;51.690;5.270;2022-07-23T08:48:07;102014.72;;;20.64;59.58
30614;BME280;17381;51.690;5.270;2022-07-23T08:51:01;102018.38;;;20.81;58.54
30614;BME280;17381;51.690;5.270;2022-07-23T08:53:54;101977.94;;;20.69;57.63
30614;BME280;17381;51.690;5.270;2022-07-23T08:56:43;102014.84;;;20.98;57.41
30614;BME280;17381;51.690;5.270;2022-07-23T08:59:21;102009.34;;;21.01;57.22
30614;BME280;17381;51.690;5.270;2022-07-23T09:02:42;101979.28;;;20.96;57.47
30614;BME280;17381;51.690;5.270;2022-07-23T09:05:34;102007.34;;;21.22;57.60
30614;BME280;17381;51.690;5.270;2022-07-23T09:08:44;102005.66;;;21.38;58.12
30614;BME280;17381;51.690;5.270;2022-07-23T09:12:09;102002.19;;;21.53;57.83
30614;BME280;17381;51.690;5.270;2022-07-23T09:15:08;101989.06;;;21.65;55.20
30614;BME280;17381;51.690;5.270;2022-07-23T09:17:56;101992.63;;;21.81;55.27
30614;BME280;17381;51.690;5.270;2022-07-23T09:21:16;101974.78;;;21.82;56.24
30614;BME280;17381;51.690;5.270;2022-07-23T09:24:11;101993.31;;;22.02;55.82
30614;BME280;17381;51.690;5.270;2022-07-23T09:27:07;101979.81;;;22.04;55.93
30614;BME280;17381;51.690;5.270;2022-07-23T09:30:15;102006.72;;;22.34;55.33
30614;BME280;17381;51.690;5.270;2022-07-23T09:33:14;102005.56;;;22.38;54.53
30614;BME280;17381;51.690;5.270;2022-07-23T09:36:04;102014.16;;;22.45;54.87
30614;BME280;17381;51.690;5.270;2022-07-23T09:38:58;102013.53;;;22.55;54.23
30614;BME280;17381;51.690;5.270;2022-07-23T09:41:57;102008.09;;;22.57;53.66
30614;BME280;17381;51.690;5.270;2022-07-23T09:44:57;102011.59;;;22.73;53.52
30614;BME280;17381;51.690;5.270;2022-07-23T09:47:58;102000.78;;;22.75;52.74
30614;BME280;17381;51.690;5.270;2022-07-23T09:51:23;102001.53;;;22.93;52.82
30614;BME280;17381;51.690;5.270;2022-07-23T09:54:45;102003.63;;;23.18;52.38
30614;BME280;17381;51.690;5.270;2022-07-23T09:57:38;102006.22;;;23.19;51.51
30614;BME280;17381;51.690;5.270;2022-07-23T10:01:02;102012.75;;;23.29;52.68
30614;BME280;17381;51.690;5.270;2022-07-23T10:03:55;101983.03;;;23.33;52.45
30614;BME280;17381;51.690;5.270;2022-07-23T10:07:11;101953.53;;;23.18;51.39
30614;BME280;17381;51.690;5.270;2022-07-23T10:10:19;102003.78;;;23.45;51.42
30614;BME280;17381;51.690;5.270;2022-07-23T10:13:28;101988.91;;;23.39;51.16
30614;BME280;17381;51.690;5.270;2022-07-23T10:16:38;102004.34;;;23.50;51.69
30614;BME280;17381;51.690;5.270;2022-07-23T10:19:29;102000.91;;;23.62;51.39
30614;BME280;17381;51.690;5.270;2022-07-23T10:22:32;102008.41;;;23.86;51.09
30614;BME280;17381;51.690;5.270;2022-07-23T10:29:15;102002.50;;;24.22;48.88
30614;BME280;17381;51.690;5.270;2022-07-23T10:39:11;102001.59;;;24.50;45.63
30614;BME280;17381;51.690;5.270;2022-07-23T10:42:21;102003.44;;;24.63;48.17
30614;BME280;17381;51.690;5.270;2022-07-23T10:45:48;101994.91;;;24.83;46.70
30614;BME280;17381;51.690;5.270;2022-07-23T10:48:35;101993.53;;;24.90;47.60
30614;BME280;17381;51.690;5.270;2022-07-23T10:51:28;102004.09;;;25.06;47.40
30614;BME280;17381;51.690;5.270;2022-07-23T10:54:39;101992.63;;;25.17;45.00
30614;BME280;17381;51.690;5.270;2022-07-23T10:57:52;101997.94;;;25.31;45.79
30614;BME280;17381;51.690;5.270;2022-07-23T11:00:45;102003.41;;;25.42;45.31
30614;BME280;17381;51.690;5.270;2022-07-23T11:03:41;101992.31;;;25.60;45.95
30614;BME280;17381;51.690;5.270;2022-07-23T11:07:29;101999.31;;;26.01;45.29
30614;BME280;17381;51.690;5.270;2022-07-23T11:10:41;101979.41;;;26.15;44.17
30614;BME280;17381;51.690;5.270;2022-07-23T11:17:25;101996.25;;;26.66;43.42
30614;BME280;17381;51.690;5.270;2022-07-23T11:20:23;101997.53;;;26.73;44.24
30614;BME280;17381;51.690;5.270;2022-07-23T11:27:03;101987.34;;;27.12;43.72
30614;BME280;17381;51.690;5.270;2022-07-23T11:30:01;101983.88;;;27.34;45.65
30614;BME280;17381;51.690;5.270;2022-07-23T11:33:39;101982.28;;;27.66;44.10
30614;BME280;17381;51.690;5.270;2022-07-23T11:36:18;101975.66;;;27.92;44.04
30614;BME280;17381;51.690;5.270;2022-07-23T11:39:20;101992.81;;;28.14;42.92
30614;BME280;17381;51.690;5.270;2022-07-23T11:42:36;101989.00;;;28.16;42.89
30614;BME280;17381;51.690;5.270;2022-07-23T11:45:30;101992.13;;;27.78;40.94
30614;BME280;17381;51.690;5.270;2022-07-23T11:48:37;101989.66;;;27.63;40.18
30614;BME280;17381;51.690;5.270;2022-07-23T11:51:37;101984.50;;;27.72;42.29
30614;BME280;17381;51.690;5.270;2022-07-23T11:54:50;101990.50;;;27.98;42.11
30614;BME280;17381;51.690;5.270;2022-07-23T11:57:45;101982.00;;;28.25;42.13
30614;BME280;17381;51.690;5.270;2022-07-23T12:00:33;101974.06;;;28.56;40.88
30614;BME280;17381;51.690;5.270;2022-07-23T12:03:23;101970.34;;;28.89;40.93
30614;BME280;17381;51.690;5.270;2022-07-23T12:06:04;101977.16;;;29.25;40.63
30614;BME280;17381;51.690;5.270;2022-07-23T12:12:18;101968.75;;;29.59;39.47
30614;BME280;17381;51.690;5.270;2022-07-23T12:15:31;101972.59;;;29.87;39.06
30614;BME280;17381;51.690;5.270;2022-07-23T12:18:21;101953.25;;;30.11;39.42
30614;BME280;17381;51.690;5.270;2022-07-23T12:27:21;101959.88;;;30.57;36.66
30614;BME280;17381;51.690;5.270;2022-07-23T12:33:56;101924.44;;;30.59;37.07
30614;BME280;17381;51.690;5.270;2022-07-23T12:36:41;101956.56;;;30.93;37.47
30614;BME280;17381;51.690;5.270;2022-07-23T12:39:41;101954.28;;;30.98;35.21
30614;BME280;17381;51.690;5.270;2022-07-23T12:42:43;101947.28;;;30.95;35.84
30614;BME280;17381;51.690;5.270;2022-07-23T12:45:48;101956.13;;;30.97;36.34
30614;BME280;17381;51.690;5.270;2022-07-23T12:48:27;101949.25;;;31.13;35.96
30614;BME280;17381;51.690;5.270;2022-07-23T12:51:20;101936.94;;;31.18;32.82
30614;BME280;17381;51.690;5.270;2022-07-23T12:54:11;101959.56;;;30.99;33.01
30614;BME280;17381;51.690;5.270;2022-07-23T12:56:59;101944.56;;;30.95;35.86
30614;BME280;17381;51.690;5.270;2022-07-23T12:59:42;101959.41;;;31.11;33.57
30614;BME280;17381;51.690;5.270;2022-07-23T13:02:31;101945.53;;;31.14;36.52
30614;BME280;17381;51.690;5.270;2022-07-23T13:05:56;101953.47;;;31.44;35.31
30614;BME280;17381;51.690;5.270;2022-07-23T13:08:47;101924.56;;;31.43;35.56
30614;BME280;17381;51.690;5.270;2022-07-23T13:14:43;101950.75;;;31.72;32.98
30614;BME280;17381;51.690;5.270;2022-07-23T13:17:34;101942.78;;;31.70;35.27
30614;BME280;17381;51.690;5.270;2022-07-23T13:20:28;101952.75;;;31.70;32.51
30614;BME280;17381;51.690;5.270;2022-07-23T13:23:21;101944.50;;;31.62;36.00
30614;BME280;17381;51.690;5.270;2022-07-23T13:26:37;101949.56;;;31.84;36.40
30614;BME280;17381;51.690;5.270;2022-07-23T13:29:31;101943.72;;;32.07;36.40
30614;BME280;17381;51.690;5.270;2022-07-23T13:32:04;101945.28;;;32.27;35.16
30614;BME280;17381;51.690;5.270;2022-07-23T13:34:52;101949.47;;;32.40;35.71
30614;BME280;17381;51.690;5.270;2022-07-23T13:37:47;101935.84;;;32.22;31.64
30614;BME280;17381;51.690;5.270;2022-07-23T13:40:33;101947.75;;;32.03;35.54
30614;BME280;17381;51.690;5.270;2022-07-23T13:43:39;101933.50;;;31.91;34.55
30614;BME280;17381;51.690;5.270;2022-07-23T13:46:42;101932.19;;;31.95;35.56
30614;BME280;17381;51.690;5.270;2022-07-23T13:49:22;101917.16;;;31.91;34.86
30614;BME280;17381;51.690;5.270;2022-07-23T13:52:22;101919.69;;;32.02;33.49
30614;BME280;17381;51.690;5.270;2022-07-23T13:55:38;101920.31;;;32.14;34.36
30614;BME280;17381;51.690;5.270;2022-07-23T13:58:19;101920.88;;;32.35;33.64
30614;BME280;17381;51.690;5.270;2022-07-23T14:01:21;101916.28;;;32.54;32.50
30614;BME280;17381;51.690;5.270;2022-07-23T14:04:21;101914.66;;;32.61;33.34
30614;BME280;17381;51.690;5.270;2022-07-23T14:07:43;101922.88;;;32.69;31.77
30614;BME280;17381;51.690;5.270;2022-07-23T14:10:46;101924.34;;;32.82;34.35
30614;BME280;17381;51.690;5.270;2022-07-23T14:13:42;101923.59;;;32.97;34.73
30614;BME280;17381;51.690;5.270;2022-07-23T14:16:19;101921.72;;;32.72;33.86
30614;BME280;17381;51.690;5.270;2022-07-23T14:19:24;101914.09;;;32.40;33.82
30614;BME280;17381;51.690;5.270;2022-07-23T14:22:41;101921.09;;;32.42;34.12
30614;BME280;17381;51.690;5.270;2022-07-23T14:25:31;101916.94;;;32.48;35.19
30614;BME280;17381;51.690;5.270;2022-07-23T14:28:39;101922.56;;;32.01;34.25
30614;BME280;17381;51.690;5.270;2022-07-23T14:31:28;101890.56;;;31.29;35.51
30614;BME280;17381;51.690;5.270;2022-07-23T14:34:24;101923.41;;;31.36;34.83
30614;BME280;17381;51.690;5.270;2022-07-23T14:37:31;101931.97;;;31.14;34.33
30614;BME280;17381;51.690;5.270;2022-07-23T14:40:13;101921.97;;;31.04;35.64
30614;BME280;17381;51.690;5.270;2022-07-23T14:46:23;101921.44;;;30.91;36.37
30614;BME280;17381;51.690;5.270;2022-07-23T14:53:04;101926.19;;;31.26;37.69
30614;BME280;17381;51.690;5.270;2022-07-23T14:55:48;101916.72;;;31.30;37.12
30614;BME280;17381;51.690;5.270;2022-07-23T14:58:52;101919.63;;;31.57;37.08
30614;BME280;17381;51.690;5.270;2022-07-23T15:01:35;101914.88;;;31.68;36.83
30614;BME280;17381;51.690;5.270;2022-07-23T15:07:20;101912.06;;;32.06;36.17
30614;BME280;17381;51.690;5.270;2022-07-23T15:10:06;101912.47;;;32.11;35.77
30614;BME280;17381;51.690;5.270;2022-07-23T15:13:04;101913.22;;;32.21;36.43
30614;BME280;17381;51.690;5.270;2022-07-23T15:16:13;101918.47;;;32.32;34.03
30614;BME280;17381;51.690;5.270;2022-07-23T15:19:04;101909.66;;;32.03;33.42
30614;BME280;17381;51.690;5.270;2022-07-23T15:22:11;101895.47;;;31.81;34.28
30614;BME280;17381;51.690;5.270;2022-07-23T15:24:46;101873.41;;;31.57;34.49
30614;BME280;17381;51.690;5.270;2022-07-23T15:27:38;101905.59;;;31.61;34.92
30614;BME280;17381;51.690;5.270;2022-07-23T15:30:51;101909.13;;;31.71;34.93
30614;BME280;17381;51.690;5.270;2022-07-23T15:33:56;101902.06;;;31.79;36.44
30614;BME280;17381;51.690;5.270;2022-07-23T15:36:52;101900.72;;;31.83;35.51
30614;BME280;17381;51.690;5.270;2022-07-23T15:43:29;101892.44;;;31.57;35.92
30614;BME280;17381;51.690;5.270;2022-07-23T15:46:48;101902.63;;;31.55;35.86
30614;BME280;17381;51.690;5.270;2022-07-23T15:49:53;101893.97;;;31.41;36.08
30614;BME280;17381;51.690;5.270;2022-07-23T15:53:02;101893.50;;;31.08;34.04
30614;BME280;17381;51.690;5.270;2022-07-23T15:55:55;101885.00;;;30.84;34.75
30614;BME280;17381;51.690;5.270;2022-07-23T15:58:53;101893.28;;;30.73;35.12
30614;BME280;17381;51.690;5.270;2022-07-23T16:01:44;101888.59;;;30.65;35.59
30614;BME280;17381;51.690;5.270;2022-07-23T16:04:40;101897.03;;;30.62;34.53
30614;BME280;17381;51.690;5.270;2022-07-23T16:07:26;101901.00;;;30.48;35.58
30614;BME280;17381;51.690;5.270;2022-07-23T16:10:31;101891.16;;;30.37;36.23
30614;BME280;17381;51.690;5.270;2022-07-23T16:13:40;101864.88;;;30.38;36.65
30614;BME280;17381;51.690;5.270;2022-07-23T16:16:31;101890.03;;;30.59;37.32
30614;BME280;17381;51.690;5.270;2022-07-23T16:19:53;101884.72;;;30.68;35.93
30614;BME280;17381;51.690;5.270;2022-07-23T16:22:46;101872.59;;;30.62;36.54
30614;BME280;17381;51.690;5.270;2022-07-23T16:25:39;101877.59;;;30.57;35.52
30614;BME280;17381;51.690;5.270;2022-07-23T16:28:36;101876.44;;;30.59;36.21
30614;BME280;17381;51.690;5.270;2022-07-23T16:31:34;101875.84;;;30.65;36.93